sensor_id;sensor_type;location;lat;lon;timestamp;pressure;altitude;pressure_sealevel;temperature;humidity
5053;BME280;2545;50.892;5.740;2022-11-06T00:02:04;56296.41;;;-142.21;93.66
5053;BME280;2545;50.892;5.740;2022-11-06T00:04:29;56319.94;;;-142.21;93.48
5053;BME280;2545;50.892;5.740;2022-11-06T00:06:55;56265.03;;;-142.21;94.10
5053;BME280;2545;50.892;5.740;2022-11-06T00:09:20;56316.03;;;-142.21;94.46
5053;BME280;2545;50.892;5.740;2022-11-06T00:11:47;56312.09;;;-142.21;94.55
5053;BME280;2545;50.892;5.740;2022-11-06T00:14:13;56280.72;;;-142.21;95.38
5053;BME280;2545;50.892;5.740;2022-11-06T00:16:39;56249.34;;;-142.21;96.11
5053;BME280;2545;50.892;5.740;2022-11-06T00:19:05;56298.38;;;-142.21;96.74
5053;BME280;2545;50.892;5.740;2022-11-06T00:21:31;56263.06;;;-142.21;97.71
5053;BME280;2545;50.892;5.740;2022-11-06T00:23:59;56274.84;;;-142.21;97.15
5053;BME280;2545;50.892;5.740;2022-11-06T00:26:26;56276.81;;;-142.21;95.87
5053;BME280;2545;50.892;5.740;2022-11-06T00:28:52;56296.41;;;-142.21;95.31
5053;BME280;2545;50.892;5.740;2022-11-06T00:31:20;56294.47;;;-142.21;94.96
5053;BME280;2545;50.892;5.740;2022-11-06T00:33:46;56312.09;;;-142.21;95.44
5053;BME280;2545;50.892;5.740;2022-11-06T00:36:17;56274.84;;;-142.21;95.99
5053;BME280;2545;50.892;5.740;2022-11-06T00:38:42;56306.22;;;-142.21;96.34
5053;BME280;2545;50.892;5.740;2022-11-06T00:41:11;56312.09;;;-142.21;96.75
5053;BME280;2545;50.892;5.740;2022-11-06T00:43:37;56265.03;;;-142.21;95.96
5053;BME280;2545;50.892;5.740;2022-11-06T00:46:07;56288.56;;;-142.21;95.51
5053;BME280;2545;50.892;5.740;2022-11-06T00:48:34;56290.53;;;-142.21;95.72
5053;BME280;2545;50.892;5.740;2022-11-06T00:51:04;56270.91;;;-142.21;95.66
5053;BME280;2545;50.892;5.740;2022-11-06T00:53:29;56314.06;;;-142.21;94.31
5053;BME280;2545;50.892;5.740;2022-11-06T00:56:06;56282.69;;;-142.21;94.60
5053;BME280;2545;50.892;5.740;2022-11-06T00:58:32;56306.22;;;-142.21;95.66
5053;BME280;2545;50.892;5.740;2022-11-06T01:01:05;56296.41;;;-142.21;94.56
5053;BME280;2545;50.892;5.740;2022-11-06T01:03:30;56321.91;;;-142.21;94.78
5053;BME280;2545;50.892;5.740;2022-11-06T01:06:05;56274.84;;;-142.21;95.37
5053;BME280;2545;50.892;5.740;2022-11-06T01:08:31;56300.34;;;-142.21;95.46
5053;BME280;2545;50.892;5.740;2022-11-06T01:10:56;56314.06;;;-142.21;94.91
5053;BME280;2545;50.892;5.740;2022-11-06T01:13:22;56341.53;;;-142.21;94.65
5053;BME280;2545;50.892;5.740;2022-11-06T01:15:47;56367.00;;;-142.21;94.77
5053;BME280;2545;50.892;5.740;2022-11-06T01:18:12;56288.56;;;-142.21;94.51
5053;BME280;2545;50.892;5.740;2022-11-06T01:20:38;56306.22;;;-142.21;95.00
5053;BME280;2545;50.892;5.740;2022-11-06T01:23:03;56296.41;;;-142.21;94.92
5053;BME280;2545;50.892;5.740;2022-11-06T01:25:28;56339.56;;;-142.21;96.26
5053;BME280;2545;50.892;5.740;2022-11-06T01:27:53;56300.34;;;-142.21;96.78
5053;BME280;2545;50.892;5.740;2022-11-06T01:30:19;56323.88;;;-142.21;97.46
5053;BME280;2545;50.892;5.740;2022-11-06T01:32:44;56300.34;;;-142.21;98.19
5053;BME280;2545;50.892;5.740;2022-11-06T01:35:09;56272.88;;;-142.21;98.29
5053;BME280;2545;50.892;5.740;2022-11-06T01:37:35;56276.81;;;-142.21;98.53
5053;BME280;2545;50.892;5.740;2022-11-06T01:40:00;56319.94;;;-142.21;98.87
5053;BME280;2545;50.892;5.740;2022-11-06T01:42:25;56288.56;;;-142.21;99.51
5053;BME280;2545;50.892;5.740;2022-11-06T01:47:54;56304.25;;;-142.21;100.00
5053;BME280;2545;50.892;5.740;2022-11-06T01:50:19;56308.19;;;-142.21;100.00
5053;BME280;2545;50.892;5.740;2022-11-06T01:52:46;56310.13;;;-142.21;100.00
5053;BME280;2545;50.892;5.740;2022-11-06T01:55:18;56308.19;;;-142.21;100.00
5053;BME280;2545;50.892;5.740;2022-11-06T01:57:46;56288.56;;;-142.21;100.00
5053;BME280;2545;50.892;5.740;2022-11-06T02:00:12;56280.72;;;-142.21;100.00
5053;BME280;2545;50.892;5.740;2022-11-06T02:02:38;56284.66;;;-142.21;100.00
5053;BME280;2545;50.892;5.740;2022-11-06T02:05:04;56267.00;;;-142.21;100.00
5053;BME280;2545;50.892;5.740;2022-11-06T02:07:31;56298.38;;;-142.21;99.76
5053;BME280;2545;50.892;5.740;2022-11-06T02:09:57;56312.09;;;-142.21;99.58
5053;BME280;2545;50.892;5.740;2022-11-06T02:12:39;56288.56;;;-142.21;99.58
5053;BME280;2545;50.892;5.740;2022-11-06T02:15:23;56292.50;;;-142.21;100.00
5053;BME280;2545;50.892;5.740;2022-11-06T02:18:00;56276.81;;;-142.21;100.00
5053;BME280;2545;50.892;5.740;2022-11-06T02:20:34;56333.69;;;-142.21;100.00
5053;BME280;2545;50.892;5.740;2022-11-06T02:25:53;56339.56;;;-142.21;100.00
5053;BME280;2545;50.892;5.740;2022-11-06T02:28:27;56296.41;;;-142.21;100.00
5053;BME280;2545;50.892;5.740;2022-11-06T02:30:57;56341.53;;;-142.21;100.00
5053;BME280;2545;50.892;5.740;2022-11-06T02:33:29;56294.47;;;-142.21;100.00
5053;BME280;2545;50.892;5.740;2022-11-06T02:36:04;56298.38;;;-142.21;100.00
5053;BME280;2545;50.892;5.740;2022-11-06T02:38:36;56288.56;;;-142.21;100.00
5053;BME280;2545;50.892;5.740;2022-11-06T02:41:04;56272.88;;;-142.21;100.00
5053;BME280;2545;50.892;5.740;2022-11-06T02:43:38;56314.06;;;-142.21;100.00
5053;BME280;2545;50.892;5.740;2022-11-06T02:46:10;56292.50;;;-142.21;100.00
5053;BME280;2545;50.892;5.740;2022-11-06T02:48:45;56272.88;;;-142.21;100.00
5053;BME280;2545;50.892;5.740;2022-11-06T02:51:14;56312.09;;;-142.21;100.00
5053;BME280;2545;50.892;5.740;2022-11-06T02:53:43;56257.19;;;-142.21;100.00
5053;BME280;2545;50.892;5.740;2022-11-06T02:56:15;56327.78;;;-142.21;100.00
5053;BME280;2545;50.892;5.740;2022-11-06T02:58:47;56286.63;;;-142.21;100.00
5053;BME280;2545;50.892;5.740;2022-11-06T03:01:26;56361.13;;;-142.21;100.00
5053;BME280;2545;50.892;5.740;2022-11-06T03:03:57;56282.69;;;-142.21;100.00
5053;BME280;2545;50.892;5.740;2022-11-06T03:06:45;56329.75;;;-142.21;100.00
5053;BME280;2545;50.892;5.740;2022-11-06T03:09:16;56296.41;;;-142.21;100.00
5053;BME280;2545;50.892;5.740;2022-11-06T03:11:43;56304.25;;;-142.21;100.00
5053;BME280;2545;50.892;5.740;2022-11-06T03:14:15;56308.19;;;-142.21;100.00
5053;BME280;2545;50.892;5.740;2022-11-06T03:16:54;56325.84;;;-142.21;100.00
5053;BME280;2545;50.892;5.740;2022-11-06T03:19:31;56257.19;;;-142.21;100.00
5053;BME280;2545;50.892;5.740;2022-11-06T03:27:07;56300.34;;;-142.21;100.00
5053;BME280;2545;50.892;5.740;2022-11-06T03:29:38;56282.69;;;-142.21;100.00
5053;BME280;2545;50.892;5.740;2022-11-06T03:34:36;56286.63;;;-142.21;100.00
5053;BME280;2545;50.892;5.740;2022-11-06T03:37:12;56331.72;;;-142.21;100.00
5053;BME280;2545;50.892;5.740;2022-11-06T03:39:45;56294.47;;;-142.21;99.92
5053;BME280;2545;50.892;5.740;2022-11-06T03:42:15;56288.56;;;-142.21;100.00
5053;BME280;2545;50.892;5.740;2022-11-06T03:44:47;56268.97;;;-142.21;99.74
5053;BME280;2545;50.892;5.740;2022-11-06T03:47:22;56314.06;;;-142.21;100.00
5053;BME280;2545;50.892;5.740;2022-11-06T03:49:53;56319.94;;;-142.21;100.00
5053;BME280;2545;50.892;5.740;2022-11-06T03:52:32;56335.63;;;-142.21;100.00
5053;BME280;2545;50.892;5.740;2022-11-06T03:55:04;56286.63;;;-142.21;100.00
5053;BME280;2545;50.892;5.740;2022-11-06T03:57:36;56290.53;;;-142.21;100.00
5053;BME280;2545;50.892;5.740;2022-11-06T04:00:05;56280.72;;;-142.21;100.00
5053;BME280;2545;50.892;5.740;2022-11-06T04:02:33;56280.72;;;-142.21;100.00
5053;BME280;2545;50.892;5.740;2022-11-06T04:05:06;56308.19;;;-142.21;100.00
5053;BME280;2545;50.892;5.740;2022-11-06T04:07:36;56327.78;;;-142.21;100.00
5053;BME280;2545;50.892;5.740;2022-11-06T04:10:05;56294.47;;;-142.21;100.00
5053;BME280;2545;50.892;5.740;2022-11-06T04:12:54;56290.53;;;-142.21;100.00
5053;BME280;2545;50.892;5.740;2022-11-06T04:15:46;56259.16;;;-142.21;100.00
5053;BME280;2545;50.892;5.740;2022-11-06T04:18:18;56286.63;;;-142.21;100.00
5053;BME280;2545;50.892;5.740;2022-11-06T04:29:50;56319.94;;;-142.21;100.00
5053;BME280;2545;50.892;5.740;2022-11-06T04:38:02;56316.03;;;-142.21;100.00
5053;BME280;2545;50.892;5.740;2022-11-06T04:40:34;56265.03;;;-142.21;100.00
5053;BME280;2545;50.892;5.740;2022-11-06T04:45:33;56286.63;;;-142.21;100.00
5053;BME280;2545;50.892;5.740;2022-11-06T04:48:02;56272.88;;;-142.21;100.00
5053;BME280;2545;50.892;5.740;2022-11-06T04:50:32;56259.16;;;-142.21;100.00
5053;BME280;2545;50.892;5.740;2022-11-06T04:53:00;56329.75;;;-142.21;100.00
5053;BME280;2545;50.892;5.740;2022-11-06T04:55:28;56270.91;;;-142.21;100.00
5053;BME280;2545;50.892;5.740;2022-11-06T04:57:54;56274.84;;;-142.21;100.00
5053;BME280;2545;50.892;5.740;2022-11-06T05:00:19;56284.66;;;-142.21;100.00
5053;BME280;2545;50.892;5.740;2022-11-06T05:02:44;56288.56;;;-142.21;100.00
5053;BME280;2545;50.892;5.740;2022-11-06T05:05:10;56296.41;;;-142.21;100.00
5053;BME280;2545;50.892;5.740;2022-11-06T05:07:35;56308.19;;;-142.21;100.00
5053;BME280;2545;50.892;5.740;2022-11-06T05:10:00;56296.41;;;-142.21;100.00
5053;BME280;2545;50.892;5.740;2022-11-06T05:12:26;56331.72;;;-142.21;100.00
5053;BME280;2545;50.892;5.740;2022-11-06T05:14:51;56331.72;;;-142.21;100.00
5053;BME280;2545;50.892;5.740;2022-11-06T05:17:16;56308.19;;;-142.21;100.00
5053;BME280;2545;50.892;5.740;2022-11-06T05:19:41;56316.03;;;-142.21;100.00
5053;BME280;2545;50.892;5.740;2022-11-06T05:22:08;56298.38;;;-142.21;100.00
5053;BME280;2545;50.892;5.740;2022-11-06T05:24:52;56317.97;;;-142.21;100.00
5053;BME280;2545;50.892;5.740;2022-11-06T05:27:17;56278.78;;;-142.21;100.00
5053;BME280;2545;50.892;5.740;2022-11-06T05:29:43;56300.34;;;-142.21;100.00
5053;BME280;2545;50.892;5.740;2022-11-06T05:32:08;56292.50;;;-142.21;100.00
5053;BME280;2545;50.892;5.740;2022-11-06T05:34:34;56257.19;;;-142.21;100.00
5053;BME280;2545;50.892;5.740;2022-11-06T05:36:59;56280.72;;;-142.21;100.00
5053;BME280;2545;50.892;5.740;2022-11-06T05:39:24;56259.16;;;-142.21;100.00
5053;BME280;2545;50.892;5.740;2022-11-06T05:41:49;56306.22;;;-142.21;100.00
5053;BME280;2545;50.892;5.740;2022-11-06T05:44:15;56284.66;;;-142.21;100.00
5053;BME280;2545;50.892;5.740;2022-11-06T05:46:40;56290.53;;;-142.21;100.00
5053;BME280;2545;50.892;5.740;2022-11-06T05:49:05;56321.91;;;-142.21;100.00
5053;BME280;2545;50.892;5.740;2022-11-06T05:51:31;56310.13;;;-142.21;100.00
5053;BME280;2545;50.892;5.740;2022-11-06T05:53:56;56316.03;;;-142.21;100.00
5053;BME280;2545;50.892;5.740;2022-11-06T05:56:21;56268.97;;;-142.21;100.00
5053;BME280;2545;50.892;5.740;2022-11-06T05:58:47;56312.09;;;-142.21;100.00
5053;BME280;2545;50.892;5.740;2022-11-06T06:01:12;56298.38;;;-142.21;100.00
5053;BME280;2545;50.892;5.740;2022-11-06T06:03:37;56298.38;;;-142.21;100.00
5053;BME280;2545;50.892;5.740;2022-11-06T06:06:03;56296.41;;;-142.21;100.00
5053;BME280;2545;50.892;5.740;2022-11-06T06:08:28;56292.50;;;-142.21;100.00
5053;BME280;2545;50.892;5.740;2022-11-06T06:10:53;56276.81;;;-142.21;100.00
5053;BME280;2545;50.892;5.740;2022-11-06T06:13:19;56321.91;;;-142.21;100.00
5053;BME280;2545;50.892;5.740;2022-11-06T06:15:44;56323.88;;;-142.21;100.00
5053;BME280;2545;50.892;5.740;2022-11-06T06:18:10;56310.13;;;-142.21;100.00
5053;BME280;2545;50.892;5.740;2022-11-06T06:20:36;56335.63;;;-142.21;100.00
5053;BME280;2545;50.892;5.740;2022-11-06T06:23:02;56306.22;;;-142.21;100.00
5053;BME280;2545;50.892;5.740;2022-11-06T06:25:28;56323.88;;;-142.21;100.00
5053;BME280;2545;50.892;5.740;2022-11-06T06:27:55;56292.50;;;-142.21;100.00
5053;BME280;2545;50.892;5.740;2022-11-06T06:30:21;56298.38;;;-142.21;100.00
5053;BME280;2545;50.892;5.740;2022-11-06T06:32:47;56333.69;;;-142.21;100.00
5053;BME280;2545;50.892;5.740;2022-11-06T06:35:13;56308.19;;;-142.21;100.00
5053;BME280;2545;50.892;5.740;2022-11-06T06:37:38;56286.63;;;-142.21;100.00
5053;BME280;2545;50.892;5.740;2022-11-06T06:40:04;56265.03;;;-142.21;100.00
5053;BME280;2545;50.892;5.740;2022-11-06T06:42:30;56331.72;;;-142.21;100.00
5053;BME280;2545;50.892;5.740;2022-11-06T06:44:55;56290.53;;;-142.21;100.00
5053;BME280;2545;50.892;5.740;2022-11-06T06:47:21;56294.47;;;-142.21;100.00
5053;BME280;2545;50.892;5.740;2022-11-06T06:49:46;56296.41;;;-142.21;100.00
5053;BME280;2545;50.892;5.740;2022-11-06T06:52:11;56296.41;;;-142.21;100.00
5053;BME280;2545;50.892;5.740;2022-11-06T06:54:37;56341.53;;;-142.21;100.00
5053;BME280;2545;50.892;5.740;2022-11-06T06:57:03;56294.47;;;-142.21;100.00
5053;BME280;2545;50.892;5.740;2022-11-06T06:59:28;56312.09;;;-142.21;100.00
5053;BME280;2545;50.892;5.740;2022-11-06T07:01:54;56323.88;;;-142.21;100.00
5053;BME280;2545;50.892;5.740;2022-11-06T07:04:20;56314.06;;;-142.21;100.00
5053;BME280;2545;50.892;5.740;2022-11-06T07:06:45;56294.47;;;-142.21;100.00
5053;BME280;2545;50.892;5.740;2022-11-06T07:09:11;56294.47;;;-142.21;100.00
5053;BME280;2545;50.892;5.740;2022-11-06T07:11:36;56314.06;;;-142.21;100.00
5053;BME280;2545;50.892;5.740;2022-11-06T07:14:01;56335.63;;;-142.21;100.00
5053;BME280;2545;50.892;5.740;2022-11-06T07:16:27;56304.25;;;-142.21;100.00
5053;BME280;2545;50.892;5.740;2022-11-06T07:18:54;56308.19;;;-142.21;100.00
5053;BME280;2545;50.892;5.740;2022-11-06T07:21:19;56312.09;;;-142.21;100.00
5053;BME280;2545;50.892;5.740;2022-11-06T07:23:44;56327.78;;;-142.21;100.00
5053;BME280;2545;50.892;5.740;2022-11-06T07:26:10;56317.97;;;-142.21;100.00
5053;BME280;2545;50.892;5.740;2022-11-06T07:28:35;56314.06;;;-142.21;100.00
5053;BME280;2545;50.892;5.740;2022-11-06T07:31:02;56319.94;;;-142.21;100.00
5053;BME280;2545;50.892;5.740;2022-11-06T07:33:29;56325.84;;;-142.21;100.00
5053;BME280;2545;50.892;5.740;2022-11-06T07:35:55;56272.88;;;-142.21;100.00
5053;BME280;2545;50.892;5.740;2022-11-06T07:38:20;56302.28;;;-142.21;100.00
5053;BME280;2545;50.892;5.740;2022-11-06T07:40:45;56327.78;;;-142.21;100.00
5053;BME280;2545;50.892;5.740;2022-11-06T07:43:11;56310.13;;;-142.21;100.00
5053;BME280;2545;50.892;5.740;2022-11-06T07:45:37;56319.94;;;-142.21;99.25
5053;BME280;2545;50.892;5.740;2022-11-06T07:48:04;56296.41;;;-142.21;98.66
5053;BME280;2545;50.892;5.740;2022-11-06T07:50:30;56298.38;;;-142.21;96.22
5053;BME280;2545;50.892;5.740;2022-11-06T07:52:56;56290.53;;;-142.21;93.15
5053;BME280;2545;50.892;5.740;2022-11-06T07:55:21;56343.47;;;-142.21;91.65
5053;BME280;2545;50.892;5.740;2022-11-06T07:57:47;56304.25;;;-142.21;89.32
5053;BME280;2545;50.892;5.740;2022-11-06T08:00:13;56308.19;;;-142.21;89.12
5053;BME280;2545;50.892;5.740;2022-11-06T08:02:40;56317.97;;;-142.21;88.40
5053;BME280;2545;50.892;5.740;2022-11-06T08:05:06;56302.28;;;-142.21;87.36
5053;BME280;2545;50.892;5.740;2022-11-06T08:07:31;56294.47;;;-142.21;87.02
5053;BME280;2545;50.892;5.740;2022-11-06T08:09:56;56314.06;;;-142.21;86.45
5053;BME280;2545;50.892;5.740;2022-11-06T08:12:22;56312.09;;;-142.21;86.90
5053;BME280;2545;50.892;5.740;2022-11-06T08:14:47;56292.50;;;-142.21;86.72
5053;BME280;2545;50.892;5.740;2022-11-06T08:17:12;56300.34;;;-142.21;86.58
5053;BME280;2545;50.892;5.740;2022-11-06T08:19:38;56319.94;;;-142.21;86.82
5053;BME280;2545;50.892;5.740;2022-11-06T08:22:03;56323.88;;;-142.21;87.09
5053;BME280;2545;50.892;5.740;2022-11-06T08:24:28;56280.72;;;-142.21;87.51
5053;BME280;2545;50.892;5.740;2022-11-06T08:26:54;56304.25;;;-142.21;87.71
5053;BME280;2545;50.892;5.740;2022-11-06T08:29:19;56304.25;;;-142.21;86.99
5053;BME280;2545;50.892;5.740;2022-11-06T08:31:44;56288.56;;;-142.21;86.83
5053;BME280;2545;50.892;5.740;2022-11-06T08:34:10;56280.72;;;-142.21;86.22
5053;BME280;2545;50.892;5.740;2022-11-06T08:36:38;56306.22;;;-142.21;85.31
5053;BME280;2545;50.892;5.740;2022-11-06T08:39:04;56288.56;;;-142.21;84.69
5053;BME280;2545;50.892;5.740;2022-11-06T08:41:30;56302.28;;;-142.21;83.69
5053;BME280;2545;50.892;5.740;2022-11-06T08:43:55;56286.63;;;-142.21;82.98
5053;BME280;2545;50.892;5.740;2022-11-06T08:46:20;56294.47;;;-142.21;81.56
5053;BME280;2545;50.892;5.740;2022-11-06T08:48:45;56306.22;;;-142.21;80.68
5053;BME280;2545;50.892;5.740;2022-11-06T08:51:11;56296.41;;;-142.21;80.46
5053;BME280;2545;50.892;5.740;2022-11-06T08:53:36;56217.97;;;-142.21;79.07
5053;BME280;2545;50.892;5.740;2022-11-06T08:56:02;56280.72;;;-142.21;78.79
5053;BME280;2545;50.892;5.740;2022-11-06T08:58:28;56310.13;;;-142.21;76.94
5053;BME280;2545;50.892;5.740;2022-11-06T09:00:53;56282.69;;;-142.21;75.78
5053;BME280;2545;50.892;5.740;2022-11-06T09:03:19;56304.25;;;-142.21;74.80
5053;BME280;2545;50.892;5.740;2022-11-06T09:05:44;56276.81;;;-142.21;74.30
5053;BME280;2545;50.892;5.740;2022-11-06T09:08:11;56274.84;;;-142.21;74.22
5053;BME280;2545;50.892;5.740;2022-11-06T09:10:38;56314.06;;;-142.21;73.47
5053;BME280;2545;50.892;5.740;2022-11-06T09:13:04;56292.50;;;-142.21;72.62
5053;BME280;2545;50.892;5.740;2022-11-06T09:15:29;56296.41;;;-142.21;72.30
5053;BME280;2545;50.892;5.740;2022-11-06T09:17:55;56288.56;;;-142.21;72.65
5053;BME280;2545;50.892;5.740;2022-11-06T09:20:21;56255.22;;;-142.21;72.58
5053;BME280;2545;50.892;5.740;2022-11-06T09:22:47;56292.50;;;-142.21;72.57
5053;BME280;2545;50.892;5.740;2022-11-06T09:25:13;56300.34;;;-142.21;71.32
5053;BME280;2545;50.892;5.740;2022-11-06T09:27:47;56280.72;;;-142.21;69.50
5053;BME280;2545;50.892;5.740;2022-11-06T09:30:14;56274.84;;;-142.21;69.59
5053;BME280;2545;50.892;5.740;2022-11-06T09:32:51;56284.66;;;-142.21;68.70
5053;BME280;2545;50.892;5.740;2022-11-06T09:35:17;56265.03;;;-142.21;68.49
5053;BME280;2545;50.892;5.740;2022-11-06T09:37:42;56259.16;;;-142.21;67.44
5053;BME280;2545;50.892;5.740;2022-11-06T09:40:32;56290.53;;;-142.21;66.36
5053;BME280;2545;50.892;5.740;2022-11-06T09:45:47;56298.38;;;-142.21;66.93
5053;BME280;2545;50.892;5.740;2022-11-06T09:50:51;56265.03;;;-142.21;67.62
5053;BME280;2545;50.892;5.740;2022-11-06T09:53:35;56235.63;;;-142.21;67.21
5053;BME280;2545;50.892;5.740;2022-11-06T09:56:04;56249.34;;;-142.21;66.79
5053;BME280;2545;50.892;5.740;2022-11-06T09:58:36;56267.00;;;-142.21;66.75
5053;BME280;2545;50.892;5.740;2022-11-06T10:01:22;56253.28;;;-142.21;65.12
5053;BME280;2545;50.892;5.740;2022-11-06T10:03:59;56253.28;;;-142.21;65.21
5053;BME280;2545;50.892;5.740;2022-11-06T10:06:26;56288.56;;;-142.21;65.28
5053;BME280;2545;50.892;5.740;2022-11-06T10:08:58;56251.31;;;-142.21;65.04
5053;BME280;2545;50.892;5.740;2022-11-06T10:17:05;56233.66;;;-142.21;64.93
5053;BME280;2545;50.892;5.740;2022-11-06T10:19:38;56304.25;;;-142.21;64.05
5053;BME280;2545;50.892;5.740;2022-11-06T10:27:22;56272.88;;;-142.21;63.73
5053;BME280;2545;50.892;5.740;2022-11-06T10:30:02;56225.81;;;-142.21;63.56
5053;BME280;2545;50.892;5.740;2022-11-06T10:32:34;56268.97;;;-142.21;64.30
5053;BME280;2545;50.892;5.740;2022-11-06T10:35:30;56249.34;;;-142.21;63.68
5053;BME280;2545;50.892;5.740;2022-11-06T10:38:14;56268.97;;;-142.21;63.19
5053;BME280;2545;50.892;5.740;2022-11-06T10:40:44;56249.34;;;-142.21;63.69
5053;BME280;2545;50.892;5.740;2022-11-06T10:43:31;56294.47;;;-142.21;61.95
5053;BME280;2545;50.892;5.740;2022-11-06T10:46:13;56253.28;;;-142.21;61.43
5053;BME280;2545;50.892;5.740;2022-11-06T10:48:45;56245.44;;;-142.21;61.16
5053;BME280;2545;50.892;5.740;2022-11-06T10:59:50;56265.03;;;-142.21;61.04
5053;BME280;2545;50.892;5.740;2022-11-06T11:02:27;56214.06;;;-142.21;60.51
5053;BME280;2545;50.892;5.740;2022-11-06T11:04:54;56282.69;;;-142.21;60.67
5053;BME280;2545;50.892;5.740;2022-11-06T11:07:19;56233.66;;;-142.21;56.86
5053;BME280;2545;50.892;5.740;2022-11-06T11:09:46;56265.03;;;-142.21;57.16
5053;BME280;2545;50.892;5.740;2022-11-06T11:12:22;56267.00;;;-142.21;56.09
5053;BME280;2545;50.892;5.740;2022-11-06T11:15:19;56288.56;;;-142.21;57.58
5053;BME280;2545;50.892;5.740;2022-11-06T11:20:38;56255.22;;;-142.21;59.59
5053;BME280;2545;50.892;5.740;2022-11-06T11:23:23;56210.13;;;-142.21;60.17
5053;BME280;2545;50.892;5.740;2022-11-06T11:25:51;56245.44;;;-142.21;59.92
5053;BME280;2545;50.892;5.740;2022-11-06T11:30:52;56249.34;;;-142.21;57.85
5053;BME280;2545;50.892;5.740;2022-11-06T11:33:21;56237.59;;;-142.21;56.41
5053;BME280;2545;50.892;5.740;2022-11-06T11:35:48;56245.44;;;-142.21;55.84
5053;BME280;2545;50.892;5.740;2022-11-06T11:38:16;56243.47;;;-142.21;54.42
5053;BME280;2545;50.892;5.740;2022-11-06T11:40:43;56268.97;;;-142.21;55.64
5053;BME280;2545;50.892;5.740;2022-11-06T11:43:24;56241.50;;;-142.21;56.43
5053;BME280;2545;50.892;5.740;2022-11-06T11:46:04;56261.13;;;-142.21;54.91
5053;BME280;2545;50.892;5.740;2022-11-06T11:48:51;56259.16;;;-142.21;55.02
5053;BME280;2545;50.892;5.740;2022-11-06T11:51:37;56217.97;;;-142.21;55.65
5053;BME280;2545;50.892;5.740;2022-11-06T11:56:55;56247.38;;;-142.21;57.47
5053;BME280;2545;50.892;5.740;2022-11-06T11:59:26;56210.13;;;-142.21;57.39
5053;BME280;2545;50.892;5.740;2022-11-06T12:01:53;56239.56;;;-142.21;58.45
5053;BME280;2545;50.892;5.740;2022-11-06T12:04:33;56192.50;;;-142.21;58.03
5053;BME280;2545;50.892;5.740;2022-11-06T12:07:03;56296.41;;;-142.21;57.29
5053;BME280;2545;50.892;5.740;2022-11-06T12:09:32;56253.28;;;-142.21;57.39
5053;BME280;2545;50.892;5.740;2022-11-06T12:12:00;56233.66;;;-142.21;57.73
5053;BME280;2545;50.892;5.740;2022-11-06T12:14:35;56186.59;;;-142.21;56.82
5053;BME280;2545;50.892;5.740;2022-11-06T12:17:10;56245.44;;;-142.21;56.87
5053;BME280;2545;50.892;5.740;2022-11-06T12:19:41;56259.16;;;-142.21;57.82
5053;BME280;2545;50.892;5.740;2022-11-06T12:22:17;56217.97;;;-142.21;57.94
5053;BME280;2545;50.892;5.740;2022-11-06T12:24:52;56257.19;;;-142.21;57.43
5053;BME280;2545;50.892;5.740;2022-11-06T12:27:32;56247.38;;;-142.21;57.67
5053;BME280;2545;50.892;5.740;2022-11-06T12:30:04;56235.63;;;-142.21;57.82
5053;BME280;2545;50.892;5.740;2022-11-06T12:35:35;56270.91;;;-142.21;58.56
5053;BME280;2545;50.892;5.740;2022-11-06T12:38:23;56216.00;;;-142.21;58.95
5053;BME280;2545;50.892;5.740;2022-11-06T12:41:02;56243.47;;;-142.21;58.55
5053;BME280;2545;50.892;5.740;2022-11-06T12:43:32;56239.56;;;-142.21;59.35
5053;BME280;2545;50.892;5.740;2022-11-06T12:46:09;56270.91;;;-142.21;58.58
5053;BME280;2545;50.892;5.740;2022-11-06T12:54:41;56263.06;;;-142.21;61.13
5053;BME280;2545;50.892;5.740;2022-11-06T12:59:54;56225.81;;;-142.21;61.00
5053;BME280;2545;50.892;5.740;2022-11-06T13:05:15;56229.75;;;-142.21;62.16
5053;BME280;2545;50.892;5.740;2022-11-06T13:12:51;56253.28;;;-142.21;60.90
5053;BME280;2545;50.892;5.740;2022-11-06T13:15:29;56235.63;;;-142.21;61.34
5053;BME280;2545;50.892;5.740;2022-11-06T13:18:01;56237.59;;;-142.21;62.59
5053;BME280;2545;50.892;5.740;2022-11-06T13:20:42;56278.78;;;-142.21;61.81
5053;BME280;2545;50.892;5.740;2022-11-06T13:23:15;56268.97;;;-142.21;61.94
5053;BME280;2545;50.892;5.740;2022-11-06T13:28:48;56231.72;;;-142.21;62.93
5053;BME280;2545;50.892;5.740;2022-11-06T13:31:21;56237.59;;;-142.21;62.29
5053;BME280;2545;50.892;5.740;2022-11-06T13:33:56;56270.91;;;-142.21;64.12
5053;BME280;2545;50.892;5.740;2022-11-06T13:36:23;56274.84;;;-142.21;64.91
5053;BME280;2545;50.892;5.740;2022-11-06T13:39:19;56208.16;;;-142.21;64.57
5053;BME280;2545;50.892;5.740;2022-11-06T13:41:46;56257.19;;;-142.21;61.52
5053;BME280;2545;50.892;5.740;2022-11-06T13:44:12;56247.38;;;-142.21;63.31
5053;BME280;2545;50.892;5.740;2022-11-06T13:49:43;56255.22;;;-142.21;65.79
5053;BME280;2545;50.892;5.740;2022-11-06T13:54:59;56255.22;;;-142.21;67.70
5053;BME280;2545;50.892;5.740;2022-11-06T14:06:56;56243.47;;;-142.21;67.27
5053;BME280;2545;50.892;5.740;2022-11-06T14:09:25;56276.81;;;-142.21;68.09
5053;BME280;2545;50.892;5.740;2022-11-06T14:11:54;56300.34;;;-142.21;67.84
5053;BME280;2545;50.892;5.740;2022-11-06T14:17:12;56259.16;;;-142.21;72.28
5053;BME280;2545;50.892;5.740;2022-11-06T14:22:34;56280.72;;;-142.21;72.83
5053;BME280;2545;50.892;5.740;2022-11-06T14:32:54;56255.22;;;-142.21;81.69
5053;BME280;2545;50.892;5.740;2022-11-06T14:40:41;56231.72;;;-142.21;85.90
5053;BME280;2545;50.892;5.740;2022-11-06T14:43:16;56282.69;;;-142.21;88.99
5053;BME280;2545;50.892;5.740;2022-11-06T14:45:57;56280.72;;;-142.21;93.64
5053;BME280;2545;50.892;5.740;2022-11-06T14:48:34;56306.22;;;-142.21;96.76
5053;BME280;2545;50.892;5.740;2022-11-06T14:51:03;56284.66;;;-142.21;100.00
5053;BME280;2545;50.892;5.740;2022-11-06T14:53:36;56280.72;;;-142.21;96.74
5053;BME280;2545;50.892;5.740;2022-11-06T14:56:08;56312.09;;;-142.21;98.93
5053;BME280;2545;50.892;5.740;2022-11-06T14:58:40;56272.88;;;-142.21;99.03
5053;BME280;2545;50.892;5.740;2022-11-06T15:01:13;56308.19;;;-142.21;96.06
5053;BME280;2545;50.892;5.740;2022-11-06T15:16:50;56265.03;;;-142.21;97.02
5053;BME280;2545;50.892;5.740;2022-11-06T15:19:24;56265.03;;;-142.21;99.94
5053;BME280;2545;50.892;5.740;2022-11-06T15:22:01;56284.66;;;-142.21;99.57